罗盘
风向 的 风向 的 风向 到 风向 080° Stade Airport 11/29
风: 8 kt, 3 beaufort

7 kt

4 kt
改变
0 5.000 10.000 15.000 20.000
OVC 14.000 ft
METAR EDHI 132320Z AUTO 08008KT 060V120 9999 // OVC140/// 24/14 Q1015

METAR Stade Airport - EDHS

Stade Airport是Stade,德国中的小机场。 该机场有一条跑道: 11/29. 该领域的国际民航组织标志是EDHS.

这份报告是针对2022年8月14日 01:20, 当地时间在Hamburg-Finkenwerder Airport进行的。

机场观察

风向为080°,速度为8 kt。 风向在060°和120°之间变化。

可见度为10 km 或者更多。

有乌云密布在14.000 ft的高度。 破损或更高的上限为14.000 ft。

温度和风寒是24 °C。 露点为14 °C,相对湿度为54%。 海平面上的气压为1015 hPa (QNH)。

白天

今天,太阳从05:58升起,在20:55降落。 这适用于Stade Airport,世界夏令时可能有所不同。 当地时间与世界标准时间之间的时差为+2 小时。 夏令时目前正在进行中。

公司介绍

我们没有关于这个机场的公司信息。

体会

到Vliegles.nl去找飞行课程,跳伞和其他飞行体验。 浏览页面,了解Stade Airport附近所有可用的活动。 你也可以使用搜索功能来寻找你所在地附近的特定飞行课程、跳伞或其他飞行体验。

跑道

Id 标题 侧风 逆风 侧风 %
11/29 110°-290° 4 kt 7 kt 50 %

逆风成分最大的方向会被突出显示,并用于横风计算。 这并不一定意味着这个方向在使用。

乌云

14.000 ft OVC 乌云密布

温度 & 天气

温度 24 °C
露点 14 °C
相对湿度 54%
Kp-index 1  

白天

日出
05:56
中午
13:25
日落
20:54

小工具

你想在你的网站上有一个关于Stade Airport的当前航空天气(METAR)的小部件吗?

</> 显示HTML代码

我们和第三方通过cookies跟踪您在我们网站上的上网行为。如果您继续,我们认为您同意我们的cookie政策。 了解更多